Time;durP1;ratioP1;P1;durP2;ratioP2;P2;SDS_P1;SDS_P2;PMS_P1;PMS_P2;Temp;Humidity;BMP_temperature;BMP_pressure;BME280_temperature;BME280_humidity;BME280_pressure;Samples;Min_cycle;Max_cycle;Signal;HPM_P1;HPM_P2
2021/03/05 00:00:35;;;;;;;6.22;2.35;;;-1.00;90.80;;;;;;8333379;28;20045;-71
2021/03/05 00:04:40;;;;;;;5.80;1.67;;;-1.00;90.90;;;;;;8316980;28;20055;-71
2021/03/05 00:08:44;;;;;;;5.95;2.03;;;-1.10;90.80;;;;;;8334845;28;20051;-70
2021/03/05 00:12:47;;;;;;;4.85;1.65;;;-1.10;90.60;;;;;;8348473;28;20044;-70
2021/03/05 00:16:56;;;;;;;7.13;2.10;;;-1.10;90.90;;;;;;8361733;28;20048;-70
2021/03/05 00:21:03;;;;;;;4.75;2.08;;;-1.20;90.80;;;;;;8360579;28;20068;-70
2021/03/05 00:25:10;;;;;;;6.18;1.65;;;-1.20;90.80;;;;;;8341232;28;20131;-70
2021/03/05 00:29:11;;;;;;;5.85;1.45;;;-1.20;90.80;;;;;;8350097;28;20040;-69
2021/03/05 00:33:16;;;;;;;3.85;1.40;;;-1.20;90.80;;;;;;8340519;28;20441;-71
2021/03/05 00:37:28;;;;;;;7.10;2.72;;;-1.30;90.60;;;;;;8314780;28;20123;-70
2021/03/05 00:41:33;;;;;;;5.25;1.23;;;-1.50;90.70;;;;;;8318074;28;20048;-70
2021/03/05 00:45:37;;;;;;;7.47;1.52;;;-1.30;90.50;;;;;;8320153;28;20056;-70
2021/03/05 00:49:41;;;;;;;4.57;1.40;;;-1.30;90.70;;;;;;8320630;28;20040;-71
2021/03/05 00:53:46;;;;;;;6.95;1.48;;;-1.30;90.70;;;;;;8349075;28;20090;-71
2021/03/05 00:57:51;;;;;;;6.18;1.73;;;-1.40;90.80;;;;;;8341054;28;20044;-70
2021/03/05 01:02:03;;;;;;;6.95;1.70;;;-1.40;90.80;;;;;;8339159;28;20518;-70
2021/03/05 01:06:07;;;;;;;4.10;1.52;;;-1.40;90.80;;;;;;8339381;28;20056;-70
2021/03/05 01:10:15;;;;;;;7.05;1.58;;;-1.40;90.80;;;;;;8339923;28;20261;-70
2021/03/05 01:14:21;;;;;;;6.07;1.73;;;-1.50;90.80;;;;;;8332980;28;20044;-70
2021/03/05 01:18:28;;;;;;;6.72;1.55;;;-1.50;90.80;;;;;;8353596;28;20620;-71
2021/03/05 01:22:32;;;;;;;6.72;1.88;;;-1.60;90.80;;;;;;8332540;28;20165;-71
2021/03/05 01:26:41;;;;;;;5.35;2.00;;;-1.60;90.90;;;;;;8343071;28;20072;-70
2021/03/05 01:30:45;;;;;;;5.63;1.40;;;-1.70;90.90;;;;;;8364071;28;20342;-70
2021/03/05 01:34:49;;;;;;;4.75;1.73;;;-1.70;90.80;;;;;;8352448;28;20510;-70
2021/03/05 01:38:55;;;;;;;4.05;1.48;;;-1.80;90.90;;;;;;8366401;28;20106;-70
2021/03/05 01:43:00;;;;;;;6.72;1.38;;;-0.90;91.10;;;;;;8340810;28;20043;-70
2021/03/05 01:47:12;;;;;;;8.60;1.48;;;-1.80;90.90;;;;;;8347731;28;20036;-70
2021/03/05 01:51:22;;;;;;;3.60;1.63;;;-1.80;90.60;;;;;;8344726;28;20076;-70
2021/03/05 01:55:26;;;;;;;3.80;1.25;;;-1.80;90.50;;;;;;8326619;28;20037;-70
2021/03/05 01:59:31;;;;;;;3.83;1.15;;;-2.80;90.30;;;;;;8342775;28;20040;-71
2021/03/05 02:03:36;;;;;;;6.97;1.40;;;-1.90;90.50;;;;;;8345452;28;20203;-70
2021/03/05 02:07:40;;;;;;;6.60;1.50;;;-1.90;90.70;;;;;;8328538;28;20338;-72
2021/03/05 02:11:45;;;;;;;4.70;1.20;;;-2.00;90.50;;;;;;8339137;28;20433;-72
2021/03/05 02:15:50;;;;;;;4.53;1.60;;;-2.00;90.80;;;;;;8334313;28;20109;-72
2021/03/05 02:20:44;;;;;;;4.85;1.20;;;-2.00;90.80;;;;;;8335073;28;20051;-72
2021/03/05 02:25:33;;;;;;;5.97;1.42;;;-2.00;90.80;;;;;;8329193;28;20136;-70
2021/03/05 02:30:16;;;;;;;5.93;1.20;;;-2.10;90.80;;;;;;8340242;28;20052;-70
2021/03/05 02:34:35;;;;;;;4.85;1.45;;;-0.40;91.30;;;;;;8331002;28;20700;-71
2021/03/05 02:39:05;;;;;;;6.47;1.55;;;-2.20;90.90;;;;;;8328877;28;20049;-70
2021/03/05 02:43:15;;;;;;;4.40;1.30;;;-2.30;90.80;;;;;;8317709;28;20048;-70
2021/03/05 02:47:21;;;;;;;5.03;1.30;;;-2.30;90.80;;;;;;8321231;28;20581;-71
2021/03/05 02:51:30;;;;;;;5.03;1.65;;;-2.30;90.90;;;;;;8313651;28;20056;-70
2021/03/05 02:55:39;;;;;;;6.32;2.00;;;-2.30;90.90;;;;;;8339106;28;20050;-71
2021/03/05 02:59:44;;;;;;;7.32;1.90;;;-2.40;90.90;;;;;;8360656;28;20481;-70
2021/03/05 03:03:50;;;;;;;7.75;2.10;;;-2.40;90.60;;;;;;8340777;28;20059;-71
2021/03/05 03:07:58;;;;;;;6.68;1.95;;;-2.40;90.90;;;;;;8307258;28;20045;-71
2021/03/05 03:12:03;;;;;;;6.22;2.03;;;-2.40;90.90;;;;;;8327417;28;20043;-71
2021/03/05 03:16:17;;;;;;;6.78;2.22;;;-2.50;90.90;;;;;;8340125;28;20865;-71
2021/03/05 03:20:24;;;;;;;6.32;1.90;;;-2.50;90.90;;;;;;8343900;28;20077;-71
2021/03/05 03:24:29;;;;;;;10.00;2.75;;;-2.50;91.00;;;;;;8319722;28;20049;-71
2021/03/05 03:28:38;;;;;;;6.78;2.38;;;-2.60;91.00;;;;;;8338324;28;20053;-72
2021/03/05 03:32:44;;;;;;;9.35;1.88;;;-2.50;91.50;;;;;;8305968;28;21078;-71
2021/03/05 03:36:59;;;;;;;10.18;1.92;;;-2.50;93.00;;;;;;8340449;28;20056;-71
2021/03/05 03:41:04;;;;;;;4.07;1.95;;;-2.50;93.80;;;;;;8327068;28;20048;-71
2021/03/05 03:45:10;;;;;;;4.13;1.77;;;-2.50;94.40;;;;;;8289010;28;20045;-71
2021/03/05 03:49:22;;;;;;;4.80;1.73;;;-2.80;94.40;;;;;;8303338;28;20049;-71
2021/03/05 03:53:31;;;;;;;4.70;1.80;;;-2.10;95.10;;;;;;8304272;28;20037;-70
2021/03/05 03:57:43;;;;;;;5.65;2.03;;;-2.60;95.30;;;;;;8302802;28;20068;-69
2021/03/05 04:01:48;;;;;;;5.60;2.50;;;-2.60;95.40;;;;;;8325597;28;20052;-71
2021/03/05 04:05:54;;;;;;;5.15;1.80;;;-2.80;95.50;;;;;;8326111;28;20076;-69
2021/03/05 04:10:10;;;;;;;6.15;1.70;;;-2.60;95.50;;;;;;8310336;28;20049;-71
2021/03/05 04:14:14;;;;;;;5.15;1.58;;;-2.70;95.50;;;;;;8322134;28;20430;-72
2021/03/05 04:18:18;;;;;;;4.40;2.05;;;-1.70;95.30;;;;;;8336695;28;20080;-72
2021/03/05 04:22:25;;;;;;;;;;;-2.50;95.30;;;;;;8320122;28;20110;-72
2021/03/05 04:26:32;;;;;;;5.70;1.75;;;-2.80;95.20;;;;;;8333097;28;20023;-73
2021/03/05 04:30:36;;;;;;;6.10;1.88;;;-2.30;94.70;;;;;;8327456;28;20049;-71
2021/03/05 04:34:41;;;;;;;4.82;2.03;;;-2.70;94.40;;;;;;8317517;28;20405;-72
2021/03/05 04:38:49;;;;;;;8.38;2.00;;;-2.80;94.30;;;;;;8328013;28;20135;-72
2021/03/05 04:42:53;;;;;;;6.68;1.77;;;-2.80;94.30;;;;;;8336824;28;20044;-72
2021/03/05 04:46:54;;;;;;;5.80;2.35;;;-2.80;94.10;;;;;;8359320;28;20499;-72
2021/03/05 04:50:58;;;;;;;5.20;2.63;;;-2.80;95.30;;;;;;8310083;28;20382;-72
2021/03/05 04:55:04;;;;;;;5.55;2.17;;;-2.90;93.70;;;;;;8334245;28;24896;-72
2021/03/05 04:59:08;;;;;;;6.07;2.67;;;-2.90;93.60;;;;;;8343881;28;20499;-72
2021/03/05 05:03:13;;;;;;;12.95;4.97;;;-2.90;93.60;;;;;;8316090;28;20049;-73
2021/03/05 05:07:17;;;;;;;11.18;4.60;;;-2.70;93.40;;;;;;8312644;28;20055;-72
2021/03/05 05:11:24;;;;;;;10.95;4.03;;;-2.90;93.50;;;;;;8306214;28;20056;-74
2021/03/05 05:15:31;;;;;;;11.38;4.57;;;-2.90;93.40;;;;;;8343617;28;20055;-74
2021/03/05 05:19:35;;;;;;;19.85;5.25;;;-2.90;94.60;;;;;;8339758;28;20053;-73
2021/03/05 05:23:41;;;;;;;12.52;5.65;;;-2.90;93.00;;;;;;8322270;28;20102;-72
2021/03/05 05:27:46;;;;;;;11.60;5.03;;;-3.00;94.40;;;;;;8308307;28;20304;-72
2021/03/05 05:31:57;;;;;;;12.48;4.95;;;-2.90;93.00;;;;;;8322305;28;20044;-73
2021/03/05 05:36:02;;;;;;;10.40;3.30;;;-3.10;93.20;;;;;;8353045;28;20541;-71
2021/03/05 05:40:07;;;;;;;6.80;2.90;;;-3.00;92.90;;;;;;8327179;28;20083;-71
2021/03/05 05:44:15;;;;;;;6.57;2.70;;;-3.10;92.70;;;;;;8321254;28;20058;-71
2021/03/05 05:48:22;;;;;;;5.32;2.42;;;-3.10;93.00;;;;;;8328240;28;20056;-71
2021/03/05 05:52:30;;;;;;;5.15;2.40;;;-3.00;93.00;;;;;;8333263;28;20058;-71
2021/03/05 05:56:36;;;;;;;5.25;2.38;;;-3.20;92.90;;;;;;8302822;28;20163;-71
2021/03/05 06:00:45;;;;;;;9.13;2.85;;;-2.80;93.00;;;;;;8327170;28;20052;-70
2021/03/05 06:04:56;;;;;;;8.75;2.50;;;-3.10;94.20;;;;;;8307458;28;20558;-71
2021/03/05 06:09:09;;;;;;;7.85;2.30;;;-3.20;92.80;;;;;;8330701;28;20044;-72
2021/03/05 06:13:12;;;;;;;5.80;2.63;;;-3.10;93.10;;;;;;8342810;28;20053;-73
2021/03/05 06:17:19;;;;;;;9.25;3.30;;;-3.20;93.10;;;;;;8370088;28;20050;-73
2021/03/05 06:21:40;;;;;;;6.63;2.28;;;-3.20;99.30;;;;;;8358784;28;20048;-73
2021/03/05 06:25:44;;;;;;;5.47;1.85;;;-3.20;99.90;;;;;;8353892;28;20076;-73
2021/03/05 06:29:51;;;;;;;4.53;2.00;;;-3.20;99.90;;;;;;8341641;28;20055;-73
2021/03/05 06:34:00;;;;;;;6.05;1.92;;;-3.10;99.90;;;;;;8341243;28;20045;-73
2021/03/05 06:38:05;;;;;;;6.18;2.15;;;-2.90;99.90;;;;;;8343470;28;20071;-72
2021/03/05 06:42:14;;;;;;;5.32;2.17;;;-2.60;99.80;;;;;;8296852;28;20072;-73
2021/03/05 06:46:35;;;;;;;5.55;1.85;;;-2.30;99.70;;;;;;8334813;28;20134;-73
2021/03/05 06:50:43;;;;;;;6.57;3.20;;;-2.30;99.00;;;;;;8317441;28;20045;-73
2021/03/05 06:54:49;;;;;;;5.55;2.38;;;-2.10;99.10;;;;;;8291367;28;20765;-74
2021/03/05 06:59:21;;;;;;;7.18;1.80;;;-1.90;98.70;;;;;;8345559;28;20048;-73
2021/03/05 07:03:33;;;;;;;4.43;1.90;;;-2.00;98.90;;;;;;8327158;28;20087;-74
2021/03/05 07:07:49;;;;;;;10.25;3.65;;;-1.80;98.70;;;;;;8336838;28;20459;-74
2021/03/05 07:11:56;;;;;;;7.32;2.40;;;-1.80;98.90;;;;;;8349680;28;20056;-73
2021/03/05 07:16:00;;;;;;;16.15;4.18;;;-1.70;98.90;;;;;;8340713;28;20340;-73
2021/03/05 07:20:09;;;;;;;14.82;5.15;;;-1.60;99.00;;;;;;8329422;28;20072;-74
2021/03/05 07:24:16;;;;;;;17.50;5.20;;;-1.60;98.70;;;;;;8317093;28;20045;-73
2021/03/05 07:28:23;;;;;;;18.90;4.40;;;-1.50;99.10;;;;;;8323238;28;20044;-73
2021/03/05 07:32:49;;;;;;;10.05;3.38;;;-1.40;99.10;;;;;;8355459;28;20041;-74
2021/03/05 07:36:57;;;;;;;10.45;3.10;;;-1.30;99.40;;;;;;8357829;28;20564;-74
2021/03/05 07:41:02;;;;;;;12.93;4.70;;;-1.20;99.10;;;;;;8302450;28;20234;-74
2021/03/05 07:45:09;;;;;;;15.60;6.45;;;-1.10;99.10;;;;;;8334138;28;20558;-75
2021/03/05 07:49:14;;;;;;;21.20;6.57;;;-1.10;98.70;;;;;;8326345;28;21426;-74
2021/03/05 07:53:19;;;;;;;16.70;4.55;;;-0.80;98.40;;;;;;8332610;28;20048;-73
2021/03/05 07:57:23;;;;;;;24.50;5.50;;;-0.70;97.20;;;;;;8332370;28;20429;-74
2021/03/05 08:01:50;;;;;;;13.48;3.70;;;-0.30;95.60;;;;;;8324576;28;20099;-74
2021/03/05 08:06:03;;;;;;;15.02;3.22;;;-0.30;92.00;;;;;;8338755;28;20040;-74
2021/03/05 08:10:56;;;;;;;8.82;2.75;;;-0.50;91.10;;;;;;8307365;28;20534;-74
2021/03/05 08:15:09;;;;;;;9.45;3.55;;;0.00;91.30;;;;;;8340349;28;20422;-74
2021/03/05 08:19:16;;;;;;;6.10;2.60;;;0.20;91.30;;;;;;8358089;28;20053;-74
2021/03/05 08:23:20;;;;;;;10.85;2.58;;;0.30;91.90;;;;;;8340638;28;20510;-74
2021/03/05 08:27:36;;;;;;;10.25;3.35;;;0.60;91.50;;;;;;8351365;28;20127;-74
2021/03/05 08:31:57;;;;;;;7.90;2.30;;;1.10;91.30;;;;;;8366232;28;20047;-74
2021/03/05 08:36:03;;;;;;;8.70;2.50;;;1.10;91.60;;;;;;8323805;28;20472;-74
2021/03/05 08:40:12;;;;;;;12.40;3.80;;;1.40;91.60;;;;;;8323490;28;20506;-74
2021/03/05 08:44:19;;;;;;;6.30;2.33;;;1.60;91.70;;;;;;8308443;28;20056;-74
2021/03/05 08:48:45;;;;;;;8.57;2.80;;;2.10;91.60;;;;;;8331604;28;20056;-74
2021/03/05 08:52:50;;;;;;;9.27;2.00;;;2.10;91.90;;;;;;8337463;28;20937;-74
2021/03/05 08:56:56;;;;;;;7.30;2.13;;;2.30;91.90;;;;;;8316908;28;20040;-75
2021/03/05 09:00:58;;;;;;;9.38;2.28;;;2.60;92.00;;;;;;8321162;28;20051;-74
2021/03/05 09:05:06;;;;;;;10.60;2.60;;;2.90;92.10;;;;;;8298855;28;20045;-74
2021/03/05 09:09:11;;;;;;;5.40;2.15;;;3.20;91.90;;;;;;8330273;28;20110;-74
2021/03/05 09:13:37;;;;;;;6.68;1.90;;;3.40;92.00;;;;;;8306429;28;20053;-74
2021/03/05 09:17:44;;;;;;;17.90;2.97;;;3.60;92.00;;;;;;8331092;28;20510;-74
2021/03/05 09:22:07;;;;;;;7.55;2.33;;;3.80;92.10;;;;;;8321753;28;20567;-74
2021/03/05 09:26:16;;;;;;;4.97;1.65;;;4.00;92.00;;;;;;8319997;28;20102;-75
2021/03/05 09:30:21;;;;;;;7.13;2.03;;;4.20;92.00;;;;;;8319736;28;20541;-74
2021/03/05 09:34:28;;;;;;;7.78;1.42;;;4.30;91.90;;;;;;8335452;28;20672;-74
2021/03/05 09:38:38;;;;;;;7.90;1.35;;;4.50;92.00;;;;;;8315281;28;20052;-74
2021/03/05 09:42:50;;;;;;;3.67;0.93;;;4.70;91.90;;;;;;8325149;28;20051;-74
2021/03/05 09:46:56;;;;;;;4.00;0.93;;;4.70;92.00;;;;;;8344136;28;20514;-74
2021/03/05 09:51:07;;;;;;;7.63;1.70;;;4.90;92.00;;;;;;8339626;28;20056;-74
2021/03/05 09:55:25;;;;;;;4.22;1.02;;;5.10;91.90;;;;;;8361469;28;20082;-74
2021/03/05 09:59:51;;;;;;;7.80;2.35;;;5.20;94.50;;;;;;8324704;28;20047;-74
2021/03/05 10:03:58;;;;;;;8.25;3.28;;;5.30;95.30;;;;;;8344992;28;20528;-74
2021/03/05 10:08:28;;;;;;;3.75;0.88;;;5.40;95.10;;;;;;8344640;28;20054;-74
2021/03/05 10:12:34;;;;;;;1.92;0.55;;;5.50;94.50;;;;;;8366579;28;20502;-74
2021/03/05 10:16:40;;;;;;;3.57;0.90;;;5.80;95.00;;;;;;8327828;28;20450;-75
2021/03/05 10:20:52;;;;;;;4.00;0.75;;;5.70;93.40;;;;;;8337026;28;20521;-74
2021/03/05 10:24:56;;;;;;;3.65;0.70;;;5.90;92.80;;;;;;8328744;28;20131;-74
2021/03/05 10:29:08;;;;;;;4.88;0.80;;;5.90;92.30;;;;;;8310429;28;20128;-74
2021/03/05 10:33:12;;;;;;;3.13;0.60;;;6.50;92.40;;;;;;8342029;28;20040;-74
2021/03/05 10:37:17;;;;;;;3.25;2.03;;;6.00;91.00;;;;;;8336517;28;20051;-74
2021/03/05 10:41:23;;;;;;;6.95;2.13;;;6.00;91.20;;;;;;8330122;28;20068;-74
2021/03/05 10:45:27;;;;;;;4.35;2.10;;;6.40;91.10;;;;;;8322351;28;20056;-74
2021/03/05 10:49:32;;;;;;;5.97;1.50;;;6.20;91.00;;;;;;8333079;28;20068;-73
2021/03/05 10:53:38;;;;;;;2.00;0.52;;;6.30;90.70;;;;;;8316315;28;20602;-74
2021/03/05 10:57:41;;;;;;;4.67;0.80;;;6.30;89.10;;;;;;8324031;28;20052;-73
2021/03/05 11:01:53;;;;;;;5.38;0.98;;;6.40;90.00;;;;;;8349199;28;20509;-73
2021/03/05 11:06:00;;;;;;;10.88;1.05;;;6.40;89.50;;;;;;8352781;28;20044;-73
2021/03/05 11:10:06;;;;;;;4.13;1.00;;;6.50;90.30;;;;;;8347414;28;20052;-74
2021/03/05 11:14:14;;;;;;;4.03;0.95;;;6.60;89.40;;;;;;8352562;28;20129;-73
2021/03/05 11:18:20;;;;;;;3.95;0.80;;;7.80;89.50;;;;;;8357540;28;20090;-74
2021/03/05 11:22:26;;;;;;;3.58;0.60;;;6.70;88.90;;;;;;8357723;28;20052;-75
2021/03/05 11:26:30;;;;;;;7.32;1.02;;;6.80;88.70;;;;;;8343377;28;20048;-73
2021/03/05 11:30:37;;;;;;;2.65;0.80;;;6.70;87.10;;;;;;8332005;28;20080;-73
2021/03/05 11:34:43;;;;;;;3.60;0.63;;;6.70;86.70;;;;;;8329165;28;20090;-73
2021/03/05 11:38:49;;;;;;;2.90;0.60;;;6.70;85.50;;;;;;8334675;28;20124;-73
2021/03/05 11:42:53;;;;;;;2.03;0.63;;;6.70;86.00;;;;;;8322251;28;20041;-73
2021/03/05 11:46:59;;;;;;;5.07;0.82;;;6.80;85.20;;;;;;8304215;28;20428;-74
2021/03/05 11:51:06;;;;;;;4.88;0.70;;;6.80;85.30;;;;;;8346690;28;20063;-73
2021/03/05 11:55:11;;;;;;;2.72;0.50;;;6.80;84.80;;;;;;8339628;28;20052;-74
2021/03/05 11:59:15;;;;;;;6.90;0.85;;;6.70;86.20;;;;;;8330690;28;20550;-75
2021/03/05 12:03:23;;;;;;;6.75;0.90;;;5.50;84.50;;;;;;8340353;28;20151;-75
2021/03/05 12:07:30;;;;;;;6.32;0.85;;;6.70;87.90;;;;;;8341992;28;20506;-74
2021/03/05 12:11:36;;;;;;;5.47;0.70;;;7.50;87.90;;;;;;8345919;28;20045;-74
2021/03/05 12:15:40;;;;;;;3.70;0.57;;;6.60;84.60;;;;;;8338853;28;20135;-75
2021/03/05 12:19:45;;;;;;;5.20;0.80;;;6.60;87.70;;;;;;8339106;28;20598;-74
2021/03/05 12:23:51;;;;;;;4.03;0.70;;;6.70;83.70;;;;;;8337601;28;20083;-75
2021/03/05 12:27:55;;;;;;;8.65;1.08;;;6.80;86.10;;;;;;8365698;28;20044;-74
2021/03/05 12:32:00;;;;;;;9.95;1.10;;;6.90;84.90;;;;;;8348752;28;20040;-74
2021/03/05 12:36:04;;;;;;;3.90;0.50;;;7.10;84.60;;;;;;8305016;28;20038;-74
2021/03/05 12:40:09;;;;;;;4.50;0.70;;;7.10;85.80;;;;;;8326522;28;20103;-74
2021/03/05 12:44:13;;;;;;;4.97;0.82;;;7.30;84.60;;;;;;8342766;28;20057;-74
2021/03/05 12:48:18;;;;;;;5.40;0.90;;;7.30;82.10;;;;;;8357407;28;20052;-75
2021/03/05 12:52:28;;;;;;;4.82;0.80;;;7.40;84.60;;;;;;8340313;28;20045;-74
2021/03/05 12:56:33;;;;;;;6.00;0.85;;;7.50;84.50;;;;;;8314388;28;20049;-74
2021/03/05 13:00:40;;;;;;;3.75;0.60;;;7.40;82.70;;;;;;8335568;28;20052;-74
2021/03/05 13:04:45;;;;;;;5.78;1.02;;;7.20;84.60;;;;;;8343026;28;20091;-74
2021/03/05 13:08:49;;;;;;;10.38;0.80;;;7.10;84.40;;;;;;8329022;28;20049;-74
2021/03/05 13:12:53;;;;;;;5.38;0.93;;;7.00;84.20;;;;;;8312969;28;20514;-74
2021/03/05 13:17:08;;;;;;;2.78;0.57;;;6.90;86.30;;;;;;8335437;28;20040;-74
2021/03/05 13:21:13;;;;;;;4.60;0.65;;;6.90;85.50;;;;;;8342237;28;20044;-75
2021/03/05 13:25:20;;;;;;;3.45;0.60;;;6.80;86.00;;;;;;8349285;28;20057;-74
2021/03/05 13:29:24;;;;;;;4.60;0.75;;;6.80;86.10;;;;;;8347032;28;20060;-76
2021/03/05 13:33:28;;;;;;;4.93;0.80;;;6.80;85.50;;;;;;8355003;28;20423;-74
2021/03/05 13:37:35;;;;;;;4.32;0.60;;;6.70;85.50;;;;;;8362998;28;20040;-74
2021/03/05 13:41:43;;;;;;;3.63;0.80;;;6.70;86.20;;;;;;8358449;28;20461;-74
2021/03/05 13:45:44;;;;;;;4.65;0.88;;;6.60;86.50;;;;;;8355832;28;20049;-74
2021/03/05 13:49:48;;;;;;;5.30;0.75;;;6.60;87.00;;;;;;8361200;28;20044;-74
2021/03/05 13:54:00;;;;;;;5.03;0.75;;;6.60;87.30;;;;;;8345638;28;20526;-74
2021/03/05 13:58:05;;;;;;;5.93;0.90;;;6.50;86.70;;;;;;8344471;28;20150;-74
2021/03/05 14:02:09;;;;;;;4.97;0.77;;;6.40;87.60;;;;;;8335329;28;20049;-74
2021/03/05 14:06:23;;;;;;;4.60;0.73;;;6.40;84.20;;;;;;8350441;28;20056;-74
2021/03/05 14:10:28;;;;;;;5.32;0.82;;;6.70;86.50;;;;;;8359019;28;20113;-74
2021/03/05 14:14:37;;;;;;;7.50;1.15;;;6.70;86.70;;;;;;8344468;28;20468;-74
2021/03/05 14:18:41;;;;;;;5.82;0.90;;;6.80;85.40;;;;;;8329837;28;20144;-73
2021/03/05 14:22:48;;;;;;;3.00;0.85;;;6.90;85.10;;;;;;8352740;28;20048;-74
2021/03/05 14:26:52;;;;;;;3.28;0.70;;;7.00;85.20;;;;;;8344233;28;20041;-74
2021/03/05 14:30:56;;;;;;;4.30;0.80;;;7.00;83.00;;;;;;8324225;28;20049;-74
2021/03/05 14:35:01;;;;;;;4.32;0.90;;;6.90;83.80;;;;;;8302548;28;20526;-74
2021/03/05 14:39:05;;;;;;;4.35;1.17;;;6.90;85.00;;;;;;8326083;28;20469;-74
2021/03/05 14:43:09;;;;;;;3.50;0.80;;;7.00;83.80;;;;;;8315562;28;20075;-74
2021/03/05 14:47:16;;;;;;;2.88;0.95;;;6.90;85.30;;;;;;8321139;28;20045;-74
2021/03/05 14:51:20;;;;;;;2.53;0.68;;;6.90;85.60;;;;;;8318596;28;20427;-74
2021/03/05 14:55:25;;;;;;;4.30;0.95;;;6.90;85.90;;;;;;8342965;28;20465;-74
2021/03/05 14:59:29;;;;;;;2.78;0.82;;;6.90;85.60;;;;;;8350246;28;20041;-74
2021/03/05 15:03:34;;;;;;;9.05;0.98;;;6.90;85.80;;;;;;8347962;28;20053;-74
2021/03/05 15:07:38;;;;;;;3.78;0.70;;;6.90;84.70;;;;;;8349313;28;20506;-74
2021/03/05 15:11:42;;;;;;;3.17;0.55;;;6.90;85.50;;;;;;8338616;28;20103;-74
2021/03/05 15:15:47;;;;;;;2.22;0.50;;;6.80;86.40;;;;;;8339750;28;21236;-74
2021/03/05 15:19:52;;;;;;;3.63;0.40;;;6.80;86.00;;;;;;8348171;28;20048;-74
2021/03/05 15:23:59;;;;;;;6.07;0.70;;;6.80;85.80;;;;;;8335287;28;20171;-74
2021/03/05 15:28:04;;;;;;;3.53;0.73;;;6.70;86.00;;;;;;8357370;28;20056;-75
2021/03/05 15:32:08;;;;;;;4.40;0.90;;;6.60;85.50;;;;;;8351267;28;20075;-74
2021/03/05 15:36:14;;;;;;;3.03;0.80;;;6.60;86.50;;;;;;8338038;28;20072;-75
2021/03/05 15:40:21;;;;;;;5.57;0.65;;;6.50;85.60;;;;;;8349296;28;20080;-75
2021/03/05 15:44:26;;;;;;;1.95;0.43;;;6.40;85.10;;;;;;8338631;28;20066;-74
2021/03/05 15:48:31;;;;;;;1.52;0.50;;;6.30;86.30;;;;;;8339787;28;20541;-74
2021/03/05 15:52:36;;;;;;;1.83;0.60;;;6.20;86.20;;;;;;8335261;28;20059;-74
2021/03/05 15:56:45;;;;;;;3.72;0.70;;;6.20;86.70;;;;;;8343152;28;20118;-74
2021/03/05 16:00:50;;;;;;;2.53;0.65;;;6.10;86.00;;;;;;8365346;28;20733;-74
2021/03/05 16:04:54;;;;;;;2.90;0.60;;;6.10;86.70;;;;;;8293710;28;20056;-74
2021/03/05 16:08:58;;;;;;;2.75;0.70;;;6.00;87.10;;;;;;8328766;28;20068;-76
2021/03/05 16:13:02;;;;;;;2.80;0.50;;;5.90;86.90;;;;;;8332343;28;20044;-74
2021/03/05 16:17:07;;;;;;;5.50;0.52;;;5.80;85.40;;;;;;8342984;28;20041;-75
2021/03/05 16:21:12;;;;;;;2.03;0.45;;;5.70;86.80;;;;;;8354838;28;20037;-74
2021/03/05 16:25:19;;;;;;;3.08;0.68;;;5.70;87.80;;;;;;8356623;28;20048;-74
2021/03/05 16:29:23;;;;;;;3.15;0.50;;;5.50;87.20;;;;;;8306666;28;20057;-75
2021/03/05 16:33:27;;;;;;;3.10;1.02;;;5.50;87.70;;;;;;8318366;28;20787;-74
2021/03/05 16:37:32;;;;;;;1.48;0.52;;;5.40;88.30;;;;;;8346732;28;20503;-74
2021/03/05 16:41:42;;;;;;;2.03;0.70;;;5.40;88.70;;;;;;8324876;28;20052;-74
2021/03/05 16:45:46;;;;;;;3.67;1.10;;;5.30;89.10;;;;;;8307653;28;20091;-74
2021/03/05 16:49:50;;;;;;;4.05;1.55;;;5.20;89.10;;;;;;8319901;28;20056;-73
2021/03/05 16:53:56;;;;;;;7.55;2.20;;;5.20;89.40;;;;;;8336261;28;20056;-74
2021/03/05 16:58:01;;;;;;;4.45;1.67;;;5.10;89.30;;;;;;8346741;28;20145;-74
2021/03/05 17:02:07;;;;;;;7.40;2.40;;;5.10;89.30;;;;;;8286675;28;20073;-75
2021/03/05 17:06:18;;;;;;;7.53;4.13;;;5.10;89.50;;;;;;8326932;28;20048;-74
2021/03/05 17:10:24;;;;;;;6.97;4.40;;;5.10;89.20;;;;;;8308267;28;20045;-74
2021/03/05 17:14:28;;;;;;;4.85;2.83;;;5.00;89.30;;;;;;8335442;28;20111;-74
2021/03/05 17:18:33;;;;;;;7.00;3.63;;;4.90;89.40;;;;;;8327457;28;20590;-74
2021/03/05 17:22:38;;;;;;;17.83;6.70;;;4.90;89.50;;;;;;8329141;28;20505;-74
2021/03/05 17:26:43;;;;;;;6.75;3.42;;;4.80;89.40;;;;;;8324682;28;20041;-74
2021/03/05 17:30:47;;;;;;;4.65;1.95;;;4.80;89.60;;;;;;8329055;28;20076;-74
2021/03/05 17:34:52;;;;;;;5.22;1.70;;;4.70;90.00;;;;;;8354847;28;20098;-74
2021/03/05 17:38:58;;;;;;;7.63;1.50;;;4.70;89.70;;;;;;8377610;28;20096;-74
2021/03/05 17:43:05;;;;;;;8.15;1.98;;;4.50;89.60;;;;;;8339660;28;20033;-74
2021/03/05 17:47:08;;;;;;;6.10;2.85;;;4.50;89.60;;;;;;8338859;28;20136;-74
2021/03/05 17:51:16;;;;;;;11.07;4.40;;;4.40;89.60;;;;;;8340505;28;20040;-74
2021/03/05 17:55:23;;;;;;;6.03;3.20;;;4.30;89.80;;;;;;8351421;28;20539;-74
2021/03/05 17:59:29;;;;;;;9.40;3.03;;;4.30;89.80;;;;;;8356387;28;20355;-74
2021/03/05 18:03:36;;;;;;;4.63;1.70;;;4.20;89.90;;;;;;8343986;28;20040;-74
2021/03/05 18:07:44;;;;;;;11.32;1.85;;;4.20;89.90;;;;;;8341871;28;20060;-74
2021/03/05 18:11:48;;;;;;;3.75;1.70;;;4.10;89.70;;;;;;8373195;28;20051;-74
2021/03/05 18:16:00;;;;;;;8.40;1.90;;;4.10;89.80;;;;;;8363001;28;20177;-74
2021/03/05 18:20:08;;;;;;;5.38;1.85;;;4.00;89.60;;;;;;8351889;28;20060;-74
2021/03/05 18:24:37;;;;;;;6.68;2.25;;;3.80;89.60;;;;;;8328219;22;20061;-79
2021/03/05 18:28:45;;;;;;;5.60;2.65;;;3.80;89.80;;;;;;8234206;28;20038;-79
2021/03/05 18:32:50;;;;;;;6.10;2.67;;;5.80;91.40;;;;;;8195830;23;20057;-72
2021/03/05 18:36:56;;;;;;;5.75;2.45;;;3.50;90.00;;;;;;8315764;28;20529;-65
2021/03/05 18:41:03;;;;;;;4.85;2.60;;;2.80;90.10;;;;;;8225938;28;20049;-64
2021/03/05 18:45:10;;;;;;;9.82;3.55;;;3.30;90.00;;;;;;8299672;28;20053;-64
2021/03/05 18:49:17;;;;;;;12.38;5.30;;;3.20;90.00;;;;;;8296115;28;20073;-65
2021/03/05 18:53:22;;;;;;;12.32;4.63;;;3.10;90.10;;;;;;8323802;28;20156;-64
2021/03/05 18:57:25;;;;;;;6.43;3.38;;;3.00;90.10;;;;;;8298216;28;20061;-65
2021/03/05 19:01:33;;;;;;;7.00;2.97;;;2.90;90.20;;;;;;8317129;28;20868;-65
2021/03/05 19:05:37;;;;;;;6.22;3.08;;;2.80;90.10;;;;;;8257079;28;20056;-64
2021/03/05 19:09:44;;;;;;;6.70;3.10;;;2.80;90.20;;;;;;8295799;28;20730;-64
2021/03/05 19:13:48;;;;;;;5.40;2.88;;;2.70;90.20;;;;;;8300039;28;20041;-64
2021/03/05 19:17:52;;;;;;;13.82;6.47;;;2.70;90.20;;;;;;8299148;28;20056;-64
2021/03/05 19:21:59;;;;;;;16.85;4.68;;;2.60;90.10;;;;;;8269014;28;20045;-64
2021/03/05 19:26:04;;;;;;;6.90;2.65;;;2.60;90.20;;;;;;8305422;28;20054;-64
2021/03/05 19:30:07;;;;;;;6.78;2.65;;;2.50;90.20;;;;;;8293779;28;20131;-64
2021/03/05 19:34:14;;;;;;;4.25;2.10;;;2.50;90.20;;;;;;8291742;28;20145;-64
2021/03/05 19:38:18;;;;;;;4.47;1.00;;;2.50;90.50;;;;;;8286961;28;20455;-64
2021/03/05 19:42:22;;;;;;;5.90;1.40;;;2.40;90.20;;;;;;8287490;28;20116;-64
2021/03/05 19:46:24;;;;;;;4.73;1.20;;;2.40;90.20;;;;;;8280560;28;20054;-69
2021/03/05 19:50:29;;;;;;;4.32;1.20;;;2.30;90.10;;;;;;8292778;28;20073;-69
2021/03/05 19:54:33;;;;;;;4.72;0.90;;;2.30;90.20;;;;;;8282232;28;20136;-69
2021/03/05 19:58:37;;;;;;;5.05;1.17;;;2.30;90.20;;;;;;8286907;28;20041;-69
2021/03/05 20:02:43;;;;;;;4.25;1.10;;;2.30;90.20;;;;;;8291858;28;20128;-69
2021/03/05 20:06:49;;;;;;;4.90;1.30;;;2.20;90.20;;;;;;8284527;28;20053;-69
2021/03/05 20:10:53;;;;;;;4.95;1.02;;;2.20;90.20;;;;;;8295058;28;20068;-68
2021/03/05 20:15:02;;;;;;;2.80;1.05;;;2.20;90.20;;;;;;8291213;28;20107;-69
2021/03/05 20:19:07;;;;;;;3.55;1.10;;;2.20;90.30;;;;;;8290455;28;20045;-69
2021/03/05 20:23:14;;;;;;;6.90;1.67;;;2.10;90.20;;;;;;8286940;28;20111;-69
2021/03/05 20:27:19;;;;;;;4.50;1.25;;;2.10;90.30;;;;;;8298360;28;20041;-69
2021/03/05 20:31:25;;;;;;;5.97;1.20;;;2.00;90.30;;;;;;8272013;28;20053;-68
2021/03/05 20:35:30;;;;;;;4.35;0.93;;;2.00;90.30;;;;;;8284768;28;20045;-68
2021/03/05 20:39:41;;;;;;;5.07;1.00;;;1.90;90.30;;;;;;8292865;28;20149;-69
2021/03/05 20:43:52;;;;;;;2.95;1.20;;;1.90;90.30;;;;;;8307355;28;20148;-69
2021/03/05 20:47:58;;;;;;;2.78;0.88;;;1.90;90.30;;;;;;8319630;28;20057;-69
2021/03/05 20:52:03;;;;;;;6.25;1.08;;;1.80;90.30;;;;;;8303703;28;20053;-69
2021/03/05 20:56:07;;;;;;;7.38;1.27;;;1.80;90.30;;;;;;8293430;28;20395;-69
2021/03/05 21:00:13;;;;;;;6.03;1.27;;;1.80;90.30;;;;;;8308727;28;20049;-69
2021/03/05 21:04:22;;;;;;;7.82;1.52;;;1.80;90.30;;;;;;8306954;28;20142;-69
2021/03/05 21:08:31;;;;;;;5.40;1.60;;;1.70;90.30;;;;;;8315152;28;20052;-69
2021/03/05 21:12:40;;;;;;;9.63;1.75;;;1.70;90.40;;;;;;8306066;28;20049;-68
2021/03/05 21:16:44;;;;;;;8.32;2.38;;;1.60;90.30;;;;;;8326313;28;20151;-69
2021/03/05 21:20:49;;;;;;;5.35;1.58;;;1.50;90.30;;;;;;8307129;28;20051;-69
2021/03/05 21:24:55;;;;;;;5.65;1.80;;;1.50;90.40;;;;;;8309581;28;20077;-70
2021/03/05 21:29:00;;;;;;;6.63;1.40;;;1.40;90.40;;;;;;8337497;28;20144;-69
2021/03/05 21:33:05;;;;;;;7.43;1.40;;;1.40;90.40;;;;;;8328481;28;20049;-69
2021/03/05 21:37:09;;;;;;;4.28;1.42;;;1.30;90.40;;;;;;8307022;28;20057;-69